createdAt,value
2018-07-23T00:04:34.337Z,5.60
2018-07-23T00:07:21.051Z,5.67
2018-07-23T00:10:06.278Z,5.63
2018-07-23T00:13:14.401Z,5.17
2018-07-23T00:16:02.755Z,5.43
2018-07-23T00:19:00.621Z,5.60
2018-07-23T00:21:46.052Z,11.53
2018-07-23T00:27:36.081Z,8.70
2018-07-23T00:33:51.931Z,6.27
2018-07-23T00:43:13.315Z,6.73
2018-07-23T00:46:14.474Z,7.23
2018-07-23T00:58:52.494Z,9.07
2018-07-23T01:04:51.651Z,7.20
2018-07-23T01:07:56.647Z,7.33
2018-07-23T01:16:58.292Z,7.80
2018-07-23T01:19:54.079Z,8.23
2018-07-23T01:22:59.765Z,8.10
2018-07-23T01:32:30.551Z,9.60
2018-07-23T01:35:30.335Z,8.43
2018-07-23T01:38:27.980Z,9.30
2018-07-23T01:41:47.426Z,8.77
2018-07-23T01:44:42.306Z,8.93
2018-07-23T01:47:43.153Z,9.43
2018-07-23T01:50:46.250Z,9.90
2018-07-23T01:53:47.252Z,8.73
2018-07-23T01:56:49.149Z,9.47
2018-07-23T01:59:58.780Z,9.03
2018-07-23T02:06:26.226Z,9.13
2018-07-23T02:09:31.407Z,8.90
2018-07-23T02:12:41.988Z,8.87
2018-07-23T02:15:46.919Z,8.70
2018-07-23T02:18:34.271Z,8.37
2018-07-23T02:21:18.014Z,8.07
2018-07-23T02:28:00.775Z,9.20
2018-07-23T02:31:02.880Z,8.53
2018-07-23T02:34:11.014Z,8.07
2018-07-23T02:40:16.093Z,8.17
2018-07-23T02:43:07.396Z,7.37
2018-07-23T02:46:04.104Z,7.60
2018-07-23T02:49:16.645Z,7.43
2018-07-23T02:52:55.464Z,8.07
2018-07-23T02:55:55.010Z,8.10
2018-07-23T02:58:51.383Z,8.00
2018-07-23T03:01:46.525Z,7.93
2018-07-23T03:12:04.882Z,9.20
2018-07-23T05:30:53.079Z,9.23
2018-07-23T07:13:17.106Z,10.33
2018-07-23T07:19:38.409Z,11.40
2018-07-23T17:20:55.950Z,13.13
2018-07-23T17:23:32.838Z,12.63
2018-07-23T17:26:09.321Z,11.20
2018-07-23T17:28:45.876Z,12.90
2018-07-23T17:31:23.756Z,11.93
2018-07-23T17:34:03.749Z,12.03
2018-07-23T17:36:46.740Z,13.27
2018-07-23T17:39:23.819Z,12.67
2018-07-23T17:42:06.405Z,12.93
2018-07-23T17:44:43.837Z,12.93
2018-07-23T17:47:22.241Z,12.03
2018-07-23T17:50:01.991Z,11.73
2018-07-23T17:52:40.362Z,12.30
2018-07-23T17:55:23.389Z,13.67
2018-07-23T17:58:01.796Z,11.70
2018-07-23T18:00:39.360Z,11.73
2018-07-23T18:03:25.562Z,11.50
2018-07-23T18:06:06.957Z,12.10
2018-07-23T18:08:45.162Z,11.17
2018-07-23T18:11:23.009Z,11.67
2018-07-23T18:14:00.274Z,11.83
2018-07-23T18:16:38.439Z,12.00
2018-07-23T18:19:19.285Z,11.87
2018-07-23T18:21:56.404Z,10.70
2018-07-23T18:24:33.834Z,11.57
2018-07-23T18:27:12.890Z,12.17
2018-07-23T18:29:51.361Z,11.30
2018-07-23T18:32:30.198Z,11.70
2018-07-23T18:35:09.759Z,12.00
2018-07-23T18:37:47.594Z,11.95
2018-07-23T18:40:25.528Z,11.03
2018-07-23T18:43:03.391Z,11.23
2018-07-23T18:45:45.041Z,10.93
2018-07-23T18:50:39.562Z,11.53
2018-07-23T18:53:19.989Z,12.17
2018-07-23T18:55:56.038Z,11.80
2018-07-23T18:58:33.434Z,11.90
2018-07-23T19:01:10.091Z,11.90
2018-07-23T19:03:47.479Z,12.03
2018-07-23T19:06:25.576Z,11.83
2018-07-23T19:09:03.084Z,12.00
2018-07-23T19:11:41.065Z,11.27
2018-07-23T19:14:19.152Z,11.77
2018-07-23T19:16:57.553Z,11.80
2018-07-23T19:19:35.153Z,11.70
2018-07-23T19:22:11.955Z,12.93
2018-07-23T19:24:50.286Z,12.93
2018-07-23T19:27:27.606Z,11.60
2018-07-23T19:30:05.697Z,11.43
2018-07-23T19:32:43.112Z,12.20
2018-07-23T19:35:21.771Z,12.60
2018-07-23T19:37:59.544Z,11.60
2018-07-23T19:40:39.965Z,12.10
2018-07-23T19:43:17.906Z,11.73
2018-07-23T19:45:54.557Z,12.70
2018-07-23T19:48:41.812Z,11.33
2018-07-23T19:51:20.477Z,11.13
2018-07-23T19:53:57.602Z,11.63
2018-07-23T19:56:34.483Z,11.97
2018-07-23T19:59:24.957Z,12.27
2018-07-23T20:02:01.996Z,12.20
2018-07-23T20:04:44.513Z,11.93
2018-07-23T20:07:22.654Z,12.27
2018-07-23T20:09:59.302Z,12.73
2018-07-23T20:12:36.840Z,12.90
2018-07-23T20:15:15.085Z,12.77
2018-07-23T20:17:52.856Z,12.53
2018-07-23T20:20:30.489Z,12.50
2018-07-23T20:23:07.530Z,12.20
2018-07-23T20:25:44.614Z,11.73
2018-07-23T20:28:23.312Z,13.13
2018-07-23T20:31:01.379Z,12.67
2018-07-23T20:33:39.145Z,11.90
2018-07-23T20:36:20.056Z,12.83
2018-07-23T20:38:57.216Z,12.43
2018-07-23T20:41:34.303Z,12.70
2018-07-23T20:44:11.826Z,13.43
2018-07-23T20:46:49.784Z,11.93
2018-07-23T20:49:27.904Z,12.00
2018-07-23T20:52:05.172Z,11.70
2018-07-23T20:54:43.195Z,11.53
2018-07-23T20:57:20.738Z,11.67
2018-07-23T20:59:57.862Z,11.77
2018-07-23T21:02:35.705Z,11.77
2018-07-23T21:05:13.188Z,13.33
2018-07-23T21:07:49.948Z,11.90
2018-07-23T21:10:28.362Z,12.20
2018-07-23T21:13:05.707Z,12.37
2018-07-23T21:15:43.537Z,11.90
2018-07-23T21:18:21.671Z,12.17
2018-07-23T21:21:03.479Z,13.37
2018-07-23T21:23:41.365Z,12.10
2018-07-23T21:26:18.593Z,12.20
2018-07-23T21:28:56.733Z,12.60
2018-07-23T21:31:34.546Z,12.47
2018-07-23T21:34:12.672Z,13.40
2018-07-23T21:36:52.479Z,13.07
2018-07-23T21:39:30.646Z,12.70
2018-07-23T21:42:10.753Z,13.27
2018-07-23T21:44:49.177Z,12.43
2018-07-23T21:47:26.516Z,11.60
2018-07-23T21:50:04.511Z,9.67
2018-07-23T21:52:41.687Z,9.43
2018-07-23T21:55:19.832Z,6.10
2018-07-23T21:57:57.682Z,5.90
2018-07-23T22:00:36.644Z,6.73
2018-07-23T22:03:15.801Z,6.57
2018-07-23T22:05:54.032Z,6.33
2018-07-23T22:08:31.419Z,7.07
2018-07-23T22:11:08.384Z,7.03
2018-07-23T22:13:46.064Z,7.50
2018-07-23T22:16:24.406Z,7.13
2018-07-23T22:19:01.612Z,6.63
2018-07-23T22:21:39.489Z,7.27
2018-07-23T22:24:17.845Z,6.10
2018-07-23T22:26:55.820Z,5.57
2018-07-23T22:29:32.883Z,5.37
2018-07-23T22:32:10.131Z,4.40
2018-07-23T22:34:48.383Z,4.43
2018-07-23T22:37:26.895Z,4.00
2018-07-23T22:40:05.296Z,3.33
2018-07-23T22:42:44.329Z,3.87
2018-07-23T22:45:21.826Z,3.60
2018-07-23T22:47:59.563Z,3.90
2018-07-23T22:50:37.849Z,3.03
2018-07-23T22:53:15.685Z,3.73
2018-07-23T22:55:54.153Z,3.37
2018-07-23T22:58:31.857Z,3.17
2018-07-23T23:01:09.611Z,3.03
2018-07-23T23:03:47.705Z,3.00
2018-07-23T23:06:26.090Z,3.00
2018-07-23T23:09:04.820Z,2.93
2018-07-23T23:11:43.355Z,3.10
2018-07-23T23:14:22.489Z,3.10
2018-07-23T23:17:00.905Z,3.00
2018-07-23T23:19:39.920Z,2.80
2018-07-23T23:22:17.912Z,2.80
2018-07-23T23:24:55.641Z,2.63
2018-07-23T23:27:32.878Z,2.73
2018-07-23T23:30:11.845Z,2.93
2018-07-23T23:32:50.564Z,3.10
2018-07-23T23:35:28.968Z,3.40
2018-07-23T23:38:07.360Z,2.90
2018-07-23T23:40:45.844Z,3.27
2018-07-23T23:43:24.572Z,3.00
2018-07-23T23:46:01.929Z,2.93
2018-07-23T23:48:40.164Z,3.00
2018-07-23T23:51:18.888Z,2.70
2018-07-23T23:53:57.685Z,3.17
2018-07-23T23:56:35.926Z,3.60
2018-07-23T23:59:14.598Z,3.73
